Time;durP1;ratioP1;P1;durP2;ratioP2;P2;SDS_P1;SDS_P2;PMS_P1;PMS_P2;Temp;Humidity;BMP_temperature;BMP_pressure;BME280_temperature;BME280_humidity;BME280_pressure;Samples;Min_cycle;Max_cycle;Signal;HPM_P1;HPM_P2
2023/01/04 00:01:49;;;;;;;;;1.50;1.00;;;;;20.60;59.81;102068.92;105397;1289;20771;-65
2023/01/04 00:04:16;;;;;;;;;2.00;2.00;;;;;20.61;59.67;102069.86;105447;1275;22596;-66
2023/01/04 00:06:43;;;;;;;;;1.00;1.00;;;;;20.61;59.69;102067.70;105554;1282;18515;-64
2023/01/04 00:09:11;;;;;;;;;2.00;2.00;;;;;20.60;59.77;102069.77;105506;1282;20791;-64
2023/01/04 00:11:38;;;;;;;;;1.00;1.00;;;;;20.60;59.59;102076.17;105481;1291;18779;-66
2023/01/04 00:14:05;;;;;;;;;2.00;2.00;;;;;20.59;59.72;102072.63;105458;1275;19032;-65
2023/01/04 00:16:32;;;;;;;;;1.50;1.50;;;;;20.60;59.56;102066.58;105581;1297;19225;-65
2023/01/04 00:19:00;;;;;;;;;1.00;1.00;;;;;20.60;59.59;102060.69;105520;1297;18267;-65
2023/01/04 00:21:27;;;;;;;;;5.00;2.00;;;;;20.60;59.81;102058.54;105544;1291;19921;-66
2023/01/04 00:23:55;;;;;;;;;1.00;1.00;;;;;20.60;59.46;102056.05;105550;1291;20666;-65
2023/01/04 00:26:22;;;;;;;;;2.00;2.00;;;;;20.59;59.35;102055.42;105440;1298;22682;-66
2023/01/04 00:28:49;;;;;;;;;2.00;2.00;;;;;20.59;59.60;102055.36;105553;1282;18516;-65
2023/01/04 00:31:17;;;;;;;;;1.00;1.00;;;;;20.59;59.51;102059.38;105461;1297;22828;-65
2023/01/04 00:33:44;;;;;;;;;2.00;2.00;;;;;20.59;59.44;102056.52;105448;1298;18768;-66
2023/01/04 00:36:11;;;;;;;;;2.00;2.00;;;;;20.57;59.73;102050.97;105483;1288;20005;-65
2023/01/04 00:38:39;;;;;;;;;2.00;2.00;;;;;20.58;59.39;102055.09;105473;1282;20547;-65
2023/01/04 00:41:06;;;;;;;;;2.00;2.00;;;;;20.58;59.28;102056.59;105438;1275;18383;-65
2023/01/04 00:43:33;;;;;;;;;2.00;2.00;;;;;20.56;59.49;102055.64;105494;1282;18520;-65
2023/01/04 00:46:01;;;;;;;;;1.00;1.00;;;;;20.55;59.33;102052.60;105595;1298;19584;-65
2023/01/04 00:48:28;;;;;;;;;2.00;2.00;;;;;20.56;59.62;102047.66;105483;1282;20616;-65
2023/01/04 00:50:55;;;;;;;;;4.00;2.00;;;;;20.56;59.52;102056.21;105490;1275;18393;-66
2023/01/04 00:53:23;;;;;;;;;2.00;2.00;;;;;20.55;59.36;102057.16;105482;1297;19259;-65
2023/01/04 00:55:50;;;;;;;;;2.00;2.00;;;;;20.56;59.31;102062.41;105555;1291;24035;-65
2023/01/04 00:58:17;;;;;;;;;1.00;1.00;;;;;20.55;59.33;102055.66;105491;1298;18638;-65
2023/01/04 01:00:45;;;;;;;;;1.00;1.00;;;;;20.56;59.44;102058.74;105457;1282;20444;-65
2023/01/04 01:03:12;;;;;;;;;1.00;1.00;;;;;20.55;59.43;102057.90;105438;1275;22497;-64
2023/01/04 01:05:40;;;;;;;;;2.00;2.00;;;;;20.54;59.34;102063.21;105563;1282;20040;-65
2023/01/04 01:10:48;;;;;;;;;2.00;2.00;;;;;20.54;59.25;102062.73;105624;1275;18329;-64
2023/01/04 01:13:15;;;;;;;;;2.00;2.00;;;;;20.54;59.18;102067.05;105514;1300;22533;-64
2023/01/04 01:15:43;;;;;;;;;2.00;2.00;;;;;20.54;59.29;102064.36;105474;1297;20815;-65
2023/01/04 01:18:10;;;;;;;;;1.00;1.00;;;;;20.53;59.26;102057.89;105506;1297;22609;-65
2023/01/04 01:20:37;;;;;;;;;1.50;1.50;;;;;20.54;59.19;102056.73;105476;1300;22917;-66
2023/01/04 01:23:05;;;;;;;;;4.00;2.00;;;;;20.53;59.25;102055.30;105422;1298;19291;-65
2023/01/04 01:25:32;;;;;;;;;4.00;2.00;;;;;20.53;59.17;102049.20;105342;1282;18432;-66
2023/01/04 01:28:00;;;;;;;;;2.00;2.00;;;;;20.52;59.25;102049.27;105454;1290;20037;-65
2023/01/04 01:30:27;;;;;;;;;1.00;1.00;;;;;20.52;59.24;102053.81;105460;1289;19632;-66
2023/01/04 01:32:55;;;;;;;;;2.00;2.00;;;;;20.51;59.17;102048.78;105486;1291;19718;-66
2023/01/04 01:35:22;;;;;;;;;2.00;2.00;;;;;20.51;59.22;102046.40;105539;1289;23469;-65
2023/01/04 01:37:49;;;;;;;;;1.00;1.00;;;;;20.53;59.10;102047.60;105505;1281;21100;-65
2023/01/04 01:40:17;;;;;;;;;2.00;2.00;;;;;20.52;59.24;102046.70;105484;1297;18409;-66
2023/01/04 01:42:44;;;;;;;;;1.00;1.00;;;;;20.52;59.00;102043.85;105434;1282;23971;-66
2023/01/04 01:45:11;;;;;;;;;;;;;;;20.52;59.08;102045.06;105422;1282;20863;-65
2023/01/04 01:47:39;;;;;;;;;;;;;;;20.51;59.22;102042.83;105506;1279;18379;-64
2023/01/04 01:50:06;;;;;;;;;2.00;1.50;;;;;20.51;59.07;102043.67;105290;1300;22205;-64
2023/01/04 01:52:33;;;;;;;;;2.00;1.00;;;;;20.51;58.95;102037.02;105402;1298;19268;-64
2023/01/04 01:55:00;;;;;;;;;1.50;1.50;;;;;20.50;59.00;102026.93;105506;1297;23135;-65
2023/01/04 01:57:28;;;;;;;;;2.00;2.00;;;;;20.49;58.86;102013.38;105527;1282;18488;-66
2023/01/04 01:59:55;;;;;;;;;2.00;2.00;;;;;20.50;58.97;102009.36;105487;1275;20787;-66
2023/01/04 02:02:22;;;;;;;;;2.00;2.00;;;;;20.50;59.02;102009.20;105470;1300;18120;-64
2023/01/04 02:04:50;;;;;;;;;1.50;1.50;;;;;20.50;58.85;102010.56;105444;1291;20085;-65
2023/01/04 02:07:17;;;;;;;;;4.00;2.00;;;;;20.50;58.90;102011.52;105536;1282;19257;-66
2023/01/04 02:09:44;;;;;;;;;2.00;2.00;;;;;20.50;59.01;102013.86;105471;1282;22954;-64
2023/01/04 02:12:12;;;;;;;;;2.00;2.00;;;;;20.49;58.86;102013.40;105516;1275;18660;-64
2023/01/04 02:14:39;;;;;;;;;2.00;1.00;;;;;20.49;58.88;102016.13;105525;1297;19248;-64
2023/01/04 02:17:06;;;;;;;;;2.00;2.00;;;;;20.49;58.65;102014.09;105454;1298;22759;-65
2023/01/04 02:19:34;;;;;;;;;2.00;2.00;;;;;20.48;58.79;102012.44;105449;1298;18560;-65
2023/01/04 02:22:01;;;;;;;;;1.00;1.00;;;;;20.48;58.77;102016.42;105597;1298;20758;-65
2023/01/04 02:24:28;;;;;;;;;1.00;1.00;;;;;20.47;58.74;102011.59;105545;1297;19892;-65
2023/01/04 02:26:56;;;;;;;;;2.00;2.00;;;;;20.47;58.57;102004.19;105503;1297;18473;-66
2023/01/04 02:29:23;;;;;;;;;4.00;2.00;;;;;20.49;58.78;102000.02;105477;1283;21011;-65
2023/01/04 02:31:51;;;;;;;;;4.00;2.00;;;;;20.47;58.72;101993.05;105559;1297;21046;-65
2023/01/04 02:34:18;;;;;;;;;2.00;2.00;;;;;20.47;58.70;101993.06;105505;1301;18512;-64
2023/01/04 02:36:45;;;;;;;;;2.00;2.00;;;;;20.47;58.80;101990.17;105452;1297;20808;-64
2023/01/04 02:39:13;;;;;;;;;2.00;2.00;;;;;20.47;58.48;101984.58;105479;1297;18362;-66
2023/01/04 02:41:40;;;;;;;;;2.00;2.00;;;;;20.47;58.65;101981.52;105470;1297;23517;-65
2023/01/04 02:46:52;;;;;;;;;1.00;1.00;;;;;20.46;58.74;101973.05;105605;1298;19644;-65
2023/01/04 02:52:04;;;;;;;;;1.50;1.50;;;;;20.45;58.66;101968.72;105233;1303;20715;-65
2023/01/04 02:54:32;;;;;;;;;2.00;2.00;;;;;20.46;58.33;101972.47;105100;1280;18463;-65
2023/01/04 02:56:59;;;;;;;;;1.50;1.50;;;;;20.46;58.71;101976.98;105038;1289;20220;-65
2023/01/04 02:59:26;;;;;;;;;2.00;2.00;;;;;20.47;58.68;101971.30;105151;1293;19445;-65
2023/01/04 03:07:23;;;;;;;;;2.00;2.00;;;;;20.46;58.58;101967.06;105016;1303;19296;-65
2023/01/04 03:09:51;;;;;;;;;2.00;1.00;;;;;20.45;58.40;101964.05;105092;1291;18448;-64
2023/01/04 03:12:34;;;;;;;;;1.00;1.00;;;;;20.44;58.60;101945.95;105115;1286;18587;-66
2023/01/04 03:15:02;;;;;;;;;4.00;2.00;;;;;20.44;58.66;101942.65;105129;1306;19310;-66
2023/01/04 03:17:29;;;;;;;;;2.00;1.00;;;;;20.44;58.61;101942.29;105086;1278;19588;-64
2023/01/04 03:19:56;;;;;;;;;1.00;1.00;;;;;20.44;58.57;101944.85;104986;1303;22856;-65
2023/01/04 03:36:09;;;;;;;;;2.00;2.00;;;;;20.42;58.43;101923.23;105511;1282;20079;-65
2023/01/04 03:49:36;;;;;;;;;1.50;1.50;;;;;20.42;58.30;101902.98;105550;1291;20719;-66
2023/01/04 03:52:03;;;;;;;;;1.00;1.00;;;;;20.42;58.40;101902.17;105590;1297;18481;-66
2023/01/04 03:54:31;;;;;;;;;1.00;1.00;;;;;20.42;58.34;101895.48;105448;1298;20711;-66
2023/01/04 03:56:58;;;;;;;;;1.00;1.00;;;;;20.42;58.14;101894.08;105445;1282;19647;-66
2023/01/04 03:59:25;;;;;;;;;1.00;1.00;;;;;20.42;58.23;101894.05;105440;1284;19762;-65
2023/01/04 04:01:53;;;;;;;;;2.00;2.00;;;;;20.42;58.26;101892.61;105557;1283;22216;-65
2023/01/04 04:09:50;;;;;;;;;1.00;1.00;;;;;20.41;58.24;101877.77;105560;1301;22096;-66
2023/01/04 04:12:17;;;;;;;;;1.00;1.00;;;;;20.41;58.29;101878.89;105478;1290;22327;-64
2023/01/04 04:14:45;;;;;;;;;2.00;2.00;;;;;20.41;58.24;101874.18;105494;1291;20133;-65
2023/01/04 04:17:12;;;;;;;;;;;;;;;20.42;58.03;101867.22;105475;1300;19425;-65
2023/01/04 04:19:39;;;;;;;;;1.00;1.00;;;;;20.41;58.05;101864.96;105581;1282;19595;-66
2023/01/04 04:22:07;;;;;;;;;2.00;2.00;;;;;20.41;58.00;101863.84;105507;1297;18689;-66
2023/01/04 04:24:34;;;;;;;;;2.00;2.00;;;;;20.40;58.16;101863.18;105531;1293;20804;-67
2023/01/04 04:27:01;;;;;;;;;1.50;1.50;;;;;20.40;58.20;101860.30;105554;1298;19563;-66
2023/01/04 04:29:29;;;;;;;;;2.00;2.00;;;;;20.39;57.99;101863.42;105534;1289;20030;-66
2023/01/04 04:31:56;;;;;;;;;1.50;1.50;;;;;20.39;58.06;101861.42;105435;1297;25237;-66
2023/01/04 04:34:23;;;;;;;;;2.00;2.00;;;;;20.38;58.13;101852.66;105507;1298;18283;-65
2023/01/04 04:36:51;;;;;;;;;2.00;2.00;;;;;20.38;57.91;101849.24;105474;1282;18423;-65
2023/01/04 04:39:18;;;;;;;;;;;;;;;20.39;57.81;101842.27;105469;1297;19227;-65
2023/01/04 04:41:45;;;;;;;;;2.00;1.00;;;;;20.38;57.86;101835.43;105485;1284;19565;-65
2023/01/04 04:44:13;;;;;;;;;2.00;2.00;;;;;20.37;57.86;101832.05;105464;1289;22907;-65
2023/01/04 04:46:40;;;;;;;;;1.50;1.50;;;;;20.38;57.94;101826.70;105465;1298;19865;-65
2023/01/04 04:49:07;;;;;;;;;2.00;2.00;;;;;20.38;57.99;101812.16;105565;1298;19614;-65
2023/01/04 04:51:35;;;;;;;;;1.00;1.00;;;;;20.37;57.77;101803.76;105515;1297;18495;-65
2023/01/04 04:54:02;;;;;;;;;;;;;;;20.38;57.76;101794.00;105509;1304;20715;-65
2023/01/04 04:56:29;;;;;;;;;1.00;1.00;;;;;20.38;57.78;101795.52;105492;1284;21571;-66
2023/01/04 04:58:57;;;;;;;;;2.00;2.00;;;;;20.38;57.68;101791.48;105452;1289;20117;-63
2023/01/04 05:01:24;;;;;;;;;2.00;2.00;;;;;20.37;57.80;101787.96;105501;1300;19279;-66
2023/01/04 05:03:51;;;;;;;;;1.50;1.50;;;;;20.38;57.52;101787.15;105449;1297;22813;-65
2023/01/04 05:06:18;;;;;;;;;1.00;1.00;;;;;20.37;57.87;101783.44;105469;1291;20042;-65
2023/01/04 05:08:46;;;;;;;;;1.00;1.00;;;;;20.37;57.69;101780.17;105487;1298;22061;-66
2023/01/04 05:11:13;;;;;;;;;2.00;2.00;;;;;20.37;57.92;101772.71;105437;1300;18537;-66
2023/01/04 05:13:40;;;;;;;;;;;;;;;20.37;57.55;101773.40;105469;1282;18493;-66
2023/01/04 05:16:08;;;;;;;;;2.00;2.00;;;;;20.38;57.70;101775.04;105579;1289;20620;-65
2023/01/04 05:18:35;;;;;;;;;1.50;1.50;;;;;20.37;57.49;101769.28;105540;1279;19198;-65
2023/01/04 05:21:02;;;;;;;;;1.00;1.00;;;;;20.37;57.62;101766.15;105529;1297;21717;-65
2023/01/04 05:23:30;;;;;;;;;1.00;1.00;;;;;20.37;57.68;101757.13;105501;1291;20879;-65
2023/01/04 05:25:57;;;;;;;;;2.00;2.00;;;;;20.36;57.64;101753.00;105434;1289;21151;-65
2023/01/04 05:28:24;;;;;;;;;2.00;2.00;;;;;20.36;57.46;101755.42;105440;1285;77230;-66
2023/01/04 05:30:52;;;;;;;;;2.00;2.00;;;;;20.36;57.74;101751.27;105550;1282;19390;-66
2023/01/04 05:33:19;;;;;;;;;2.00;2.00;;;;;20.35;57.52;101749.29;105480;1297;19625;-65
2023/01/04 05:35:47;;;;;;;;;2.00;2.00;;;;;20.35;57.66;101750.26;105464;1279;19513;-66
2023/01/04 05:38:14;;;;;;;;;1.00;1.00;;;;;20.34;57.49;101750.83;105463;1274;19343;-65
2023/01/04 05:40:42;;;;;;;;;2.00;2.00;;;;;20.35;57.57;101745.75;105446;1282;22021;-64
2023/01/04 05:43:09;;;;;;;;;2.00;2.00;;;;;20.34;57.42;101746.48;105455;1298;20050;-65
2023/01/04 05:45:36;;;;;;;;;1.00;1.00;;;;;20.36;57.57;101750.55;105470;1291;19378;-65
2023/01/04 05:48:04;;;;;;;;;2.00;2.00;;;;;20.34;57.32;101743.77;105513;1282;21795;-66
2023/01/04 05:50:31;;;;;;;;;1.00;1.00;;;;;20.34;57.51;101741.61;105436;1275;21333;-66
2023/01/04 05:52:58;;;;;;;;;1.00;1.00;;;;;20.34;57.37;101738.54;105420;1281;20714;-65
2023/01/04 05:55:26;;;;;;;;;1.00;1.00;;;;;20.34;57.41;101733.40;105556;1282;25384;-65
2023/01/04 05:57:53;;;;;;;;;2.00;2.00;;;;;20.39;57.41;101735.70;105426;1291;22237;-64
2023/01/04 06:00:20;;;;;;;;;;;;;;;20.45;57.57;101742.74;105446;1281;20651;-65
2023/01/04 06:02:47;;;;;;;;;121.00;108.00;;;;;20.49;57.60;101734.75;105569;1282;18252;-66
2023/01/04 06:05:15;;;;;;;;;99.00;76.00;;;;;20.49;58.12;101733.23;105425;1283;20190;-66
2023/01/04 06:07:42;;;;;;;;;81.00;62.00;;;;;20.47;58.45;101720.37;105546;1275;22144;-65
2023/01/04 06:10:10;;;;;;;;;74.00;57.00;;;;;20.48;58.81;101711.21;105584;1297;18483;-65
2023/01/04 06:12:37;;;;;;;;;;;;;;;20.49;58.77;101701.11;105495;1301;18626;-65
2023/01/04 06:15:04;;;;;;;;;45.00;40.50;;;;;20.48;58.67;101683.09;105521;1281;19280;-65
2023/01/04 06:17:32;;;;;;;;;43.00;39.00;;;;;20.48;58.76;101677.62;105484;1297;19257;-66
2023/01/04 06:19:59;;;;;;;;;44.00;37.50;;;;;20.49;58.74;101687.30;105430;1292;18642;-65
2023/01/04 06:22:26;;;;;;;;;35.00;29.00;;;;;20.50;58.90;101690.67;105510;1297;22090;-65
2023/01/04 06:24:54;;;;;;;;;35.50;30.50;;;;;20.51;58.87;101687.05;105547;1298;18835;-66
2023/01/04 06:27:21;;;;;;;;;27.00;25.00;;;;;20.52;58.92;101680.84;105515;1282;21240;-65
2023/01/04 06:29:48;;;;;;;;;24.00;24.00;;;;;20.51;58.92;101677.28;105451;1282;19275;-64
2023/01/04 06:32:16;;;;;;;;;25.00;22.00;;;;;20.52;59.00;101676.33;105421;1291;18924;-66
2023/01/04 06:34:43;;;;;;;;;20.67;20.00;;;;;20.52;58.77;101668.67;105436;1282;22767;-66
2023/01/04 06:37:11;;;;;;;;;22.00;18.00;;;;;20.54;58.81;101665.36;105469;1298;20709;-64
2023/01/04 06:39:38;;;;;;;;;16.00;16.00;;;;;20.58;59.05;101659.95;105452;1291;20042;-64
2023/01/04 06:42:43;;;;;;;;;;;;;;;20.61;59.30;101647.89;105498;1283;20148;-64
2023/01/04 06:44:52;;;;;;;;;20.00;18.00;;;;;20.63;59.73;101636.14;105408;1282;19995;-64
2023/01/04 06:47:20;;;;;;;;;18.00;15.00;;;;;20.66;60.15;101635.17;105569;1282;23480;-65
2023/01/04 06:49:47;;;;;;;;;15.00;14.00;;;;;20.69;60.12;101632.69;105402;1282;20069;-65
2023/01/04 06:52:14;;;;;;;;;14.50;14.50;;;;;20.71;60.12;101635.37;105462;1281;21997;-65
2023/01/04 06:54:42;;;;;;;;;12.00;9.00;;;;;20.65;59.81;101636.17;105446;1275;21931;-65
2023/01/04 06:57:09;;;;;;;;;15.00;14.00;;;;;20.63;59.80;101635.48;105519;1297;18537;-65
2023/01/04 06:59:36;;;;;;;;;11.00;11.00;;;;;20.59;59.84;101629.50;105436;1297;22265;-65
2023/01/04 07:02:04;;;;;;;;;9.00;9.00;;;;;20.57;59.86;101627.15;105442;1298;20027;-65
2023/01/04 07:04:31;;;;;;;;;7.50;7.50;;;;;20.56;59.86;101616.92;105566;1291;19905;-63
2023/01/04 07:06:58;;;;;;;;;11.50;11.50;;;;;20.54;59.71;101603.98;105489;1297;19320;-65
2023/01/04 07:09:26;;;;;;;;;13.00;10.50;;;;;20.54;59.40;101597.98;105453;1282;18605;-64
2023/01/04 07:11:53;;;;;;;;;8.00;8.00;;;;;20.57;59.40;101599.02;105376;1291;20437;-63
2023/01/04 07:14:20;;;;;;;;;10.50;9.00;;;;;20.60;59.84;101601.08;105390;1298;19434;-64
2023/01/04 07:16:48;;;;;;;;;;;;;;;20.59;60.14;101592.11;105485;1282;19589;-64
2023/01/04 07:19:15;;;;;;;;;8.00;8.00;;;;;20.58;60.26;101582.73;105509;1300;18396;-64
2023/01/04 07:21:42;;;;;;;;;5.00;5.00;;;;;20.56;60.64;101573.15;105527;1282;20701;-64
2023/01/04 07:24:10;;;;;;;;;8.00;7.00;;;;;20.54;60.56;101564.65;105391;1289;18435;-64
2023/01/04 07:26:37;;;;;;;;;7.00;6.00;;;;;20.53;60.36;101563.84;105529;1291;18692;-64
2023/01/04 07:29:16;;;;;;;;;7.50;6.00;;;;;20.52;60.28;101566.10;105385;1290;22741;-63
2023/01/04 07:31:44;;;;;;;;;7.00;5.00;;;;;20.51;60.32;101561.26;105401;1282;19620;-65
2023/01/04 07:34:11;;;;;;;;;4.00;4.00;;;;;20.51;60.17;101556.04;105397;1298;19901;-64
2023/01/04 07:36:39;;;;;;;;;5.00;5.00;;;;;20.51;60.16;101552.02;105419;1274;19306;-65
2023/01/04 07:39:06;;;;;;;;;7.00;5.00;;;;;20.50;59.86;101542.99;105498;1300;18402;-64
2023/01/04 07:41:33;;;;;;;;;4.00;4.00;;;;;20.51;59.91;101539.48;105509;1291;18515;-65
2023/01/04 07:44:01;;;;;;;;;5.00;5.00;;;;;20.51;59.83;101536.94;105503;1285;21818;-65
2023/01/04 07:46:28;;;;;;;;;5.00;5.00;;;;;20.52;59.69;101537.95;105328;1282;22751;-63
2023/01/04 07:48:56;;;;;;;;;;;;;;;20.51;59.49;101534.45;105413;1282;20052;-65
2023/01/04 07:51:23;;;;;;;;;;;;;;;20.51;59.46;101536.91;105392;1284;20955;-65
2023/01/04 07:53:50;;;;;;;;;8.00;5.00;;;;;20.55;59.30;101535.69;105393;1275;18237;-64
2023/01/04 07:56:18;;;;;;;;;7.00;7.00;;;;;20.56;59.06;101533.74;105395;1298;18625;-65
2023/01/04 07:58:45;;;;;;;;;7.00;5.00;;;;;20.58;59.10;101537.79;105341;1298;20963;-64
2023/01/04 08:01:12;;;;;;;;;5.00;5.00;;;;;20.56;58.92;101541.71;105479;1297;18575;-64
2023/01/04 08:03:40;;;;;;;;;5.00;5.00;;;;;20.56;59.22;101543.89;105402;1282;19984;-64
2023/01/04 08:06:07;;;;;;;;;5.00;5.00;;;;;20.58;59.43;101542.44;105408;1282;20732;-65
2023/01/04 08:08:34;;;;;;;;;5.00;5.00;;;;;20.60;59.80;101542.04;105439;1285;18484;-64
2023/01/04 08:11:01;;;;;;;;;7.00;5.00;;;;;20.63;59.82;101534.90;105370;1290;19935;-64
2023/01/04 08:13:29;;;;;;;;;5.00;5.00;;;;;20.64;59.95;101524.02;105405;1275;19234;-65
2023/01/04 08:15:56;;;;;;;;;5.00;4.00;;;;;20.64;60.14;101518.04;105416;1275;18422;-66
2023/01/04 08:18:23;;;;;;;;;5.00;4.00;;;;;20.64;60.22;101519.14;105370;1282;19801;-65
2023/01/04 08:20:51;;;;;;;;;6.00;4.50;;;;;20.65;60.16;101519.20;105367;1275;19521;-64
2023/01/04 08:23:18;;;;;;;;;4.00;4.00;;;;;20.68;60.00;101507.10;105382;1291;18558;-65
2023/01/04 08:25:45;;;;;;;;;7.00;5.00;;;;;20.67;60.06;101500.45;105413;1292;20208;-65
2023/01/04 08:28:13;;;;;;;;;6.00;6.00;;;;;20.69;60.19;101493.38;105589;1300;19256;-65
2023/01/04 08:30:40;;;;;;;;;4.00;4.00;;;;;20.70;59.77;101483.64;105431;1281;18442;-64
2023/01/04 08:33:07;;;;;;;;;5.00;5.00;;;;;20.69;60.04;101476.42;105435;1275;18899;-65
2023/01/04 08:35:35;;;;;;;;;4.00;2.00;;;;;20.67;59.93;101469.19;105467;1275;20878;-67
2023/01/04 08:38:02;;;;;;;;;8.00;6.00;;;;;20.68;59.56;101468.58;105392;1275;19595;-64
2023/01/04 08:40:29;;;;;;;;;5.00;4.00;;;;;20.69;59.51;101463.55;105505;1289;20124;-64
2023/01/04 08:42:57;;;;;;;;;7.00;7.00;;;;;20.69;59.62;101458.50;105477;1297;20794;-64
2023/01/04 08:45:24;;;;;;;;;4.50;4.50;;;;;20.69;59.37;101454.15;105352;1291;18382;-64
2023/01/04 08:47:51;;;;;;;;;4.00;4.00;;;;;20.68;59.60;101440.83;105246;1274;18539;-64
2023/01/04 08:50:20;;;;;;;;;7.00;4.00;;;;;20.68;59.61;101433.41;105391;1283;19294;-64
2023/01/04 08:52:47;;;;;;;;;4.00;4.00;;;;;20.69;59.97;101424.35;105304;1282;18471;-64
2023/01/04 08:55:15;;;;;;;;;7.00;7.00;;;;;20.70;60.20;101422.23;105307;1303;22621;-64
2023/01/04 08:57:43;;;;;;;;;4.50;4.50;;;;;20.69;60.16;101413.45;105343;1282;20746;-64
2023/01/04 09:00:10;;;;;;;;;7.00;7.00;;;;;20.69;59.89;101404.40;105463;1282;19489;-64
2023/01/04 09:02:37;;;;;;;;;;;;;;;20.69;60.02;101404.05;105427;1298;29061;-65
2023/01/04 09:05:05;;;;;;;;;7.00;5.00;;;;;20.68;60.06;101398.80;105443;1275;20726;-64
2023/01/04 09:07:32;;;;;;;;;7.00;5.00;;;;;20.67;60.03;101389.67;105591;1297;20121;-65
2023/01/04 09:10:00;;;;;;;;;4.50;4.50;;;;;20.67;59.92;101380.08;105471;1275;18920;-65
2023/01/04 09:12:27;;;;;;;;;5.00;5.00;;;;;20.68;59.68;101376.37;105390;1282;20946;-64
2023/01/04 09:14:54;;;;;;;;;5.00;4.00;;;;;20.68;59.78;101363.09;105524;1289;18412;-65
2023/01/04 09:17:23;;;;;;;;;6.00;5.00;;;;;20.68;59.60;101355.63;105473;1290;23030;-65
2023/01/04 09:19:50;;;;;;;;;5.00;5.00;;;;;20.69;59.57;101353.91;105456;1290;19281;-65
2023/01/04 09:22:18;;;;;;;;;5.00;5.00;;;;;20.73;59.66;101346.17;105470;1279;20041;-65
2023/01/04 09:24:45;;;;;;;;;4.00;4.00;;;;;20.74;59.96;101341.20;105403;1300;18539;-65
2023/01/04 09:27:12;;;;;;;;;7.00;7.00;;;;;20.76;60.37;101336.38;105402;1297;20065;-65
2023/01/04 09:29:40;;;;;;;;;8.00;7.00;;;;;20.77;60.43;101337.58;105376;1297;19083;-65
2023/01/04 09:32:07;;;;;;;;;5.00;5.00;;;;;20.77;60.56;101336.35;105394;1297;19113;-66
2023/01/04 09:34:34;;;;;;;;;7.00;5.00;;;;;20.77;60.71;101330.13;105480;1289;20050;-66
2023/01/04 09:37:02;;;;;;;;;5.00;4.00;;;;;20.79;60.91;101328.15;105426;1282;24163;-65
2023/01/04 09:39:30;;;;;;;;;7.00;5.00;;;;;20.75;60.69;101320.50;105458;1297;20937;-67
2023/01/04 09:41:57;;;;;;;;;4.00;4.00;;;;;20.74;60.42;101314.27;105398;1290;24082;-66
2023/01/04 09:44:25;;;;;;;;;6.00;5.00;;;;;20.72;60.61;101309.25;105375;1275;19456;-66
2023/01/04 09:46:52;;;;;;;;;5.00;5.00;;;;;20.73;60.42;101301.89;105432;1299;19181;-66
2023/01/04 09:49:20;;;;;;;;;5.00;4.00;;;;;20.74;60.32;101289.81;105537;1298;23581;-66
2023/01/04 09:51:47;;;;;;;;;4.00;4.00;;;;;20.75;60.35;101280.52;105463;1281;19640;-66
2023/01/04 09:54:15;;;;;;;;;7.00;5.00;;;;;20.78;60.46;101267.19;105443;1297;19266;-66
2023/01/04 09:56:43;;;;;;;;;5.00;4.50;;;;;20.82;60.61;101253.89;105452;1275;20024;-67
2023/01/04 09:59:10;;;;;;;;;5.00;5.00;;;;;20.83;60.62;101249.81;105407;1289;19568;-65
2023/01/04 10:01:38;;;;;;;;;8.00;5.00;;;;;20.84;60.82;101241.54;105569;1297;20666;-66
2023/01/04 10:04:05;;;;;;;;;5.00;4.00;;;;;20.85;60.59;101226.55;105490;1296;20476;-65
2023/01/04 10:06:32;;;;;;;;;7.00;5.00;;;;;20.85;60.66;101212.38;105459;1278;19477;-66
2023/01/04 10:09:00;;;;;;;;;6.00;6.00;;;;;20.83;60.33;101202.57;105444;1282;19333;-65
2023/01/04 10:11:27;;;;;;;;;10.00;8.00;;;;;20.83;60.38;101194.53;105488;1282;21485;-65
2023/01/04 10:13:54;;;;;;;;;7.50;7.00;;;;;20.83;60.21;101179.14;105381;1297;21172;-65
2023/01/04 10:16:22;;;;;;;;;9.00;7.00;;;;;20.83;59.96;101172.98;105456;1298;19253;-67
2023/01/04 10:18:49;;;;;;;;;6.00;5.00;;;;;20.85;60.03;101163.27;105478;1274;21403;-64
2023/01/04 10:21:16;;;;;;;;;6.00;6.00;;;;;20.87;59.95;101158.00;105510;1282;19553;-64
2023/01/04 10:23:44;;;;;;;;;4.00;4.00;;;;;20.86;59.80;101155.02;105514;1282;19350;-64
2023/01/04 10:26:12;;;;;;;;;4.00;4.00;;;;;20.83;59.77;101141.52;105511;1297;21708;-66
2023/01/04 10:28:39;;;;;;;;;7.00;7.00;;;;;20.84;59.72;101133.61;105417;1297;19583;-64
2023/01/04 10:31:06;;;;;;;;;7.00;5.00;;;;;20.83;59.80;101131.73;105508;1297;19643;-64
2023/01/04 10:33:34;;;;;;;;;8.00;5.00;;;;;20.79;59.71;101125.97;105518;1291;20026;-65
2023/01/04 10:36:01;;;;;;;;;;;;;;;20.76;59.68;101118.16;105459;1298;19278;-65
2023/01/04 10:38:28;;;;;;;;;4.50;4.50;;;;;20.74;59.56;101119.25;105459;1282;19057;-65
2023/01/04 10:40:56;;;;;;;;;3.00;3.00;;;;;20.74;59.66;101110.15;105422;1275;22684;-64
2023/01/04 10:43:23;;;;;;;;;7.00;7.00;;;;;20.73;59.68;101101.06;105512;1282;19570;-65
2023/01/04 10:45:50;;;;;;;;;7.00;7.00;;;;;20.71;59.74;101093.65;105470;1282;19131;-65
2023/01/04 10:48:18;;;;;;;;;7.00;7.00;;;;;20.72;59.68;101087.34;105461;1297;20043;-65
2023/01/04 10:50:45;;;;;;;;;7.00;5.00;;;;;20.72;59.66;101079.89;105434;1297;19306;-64
2023/01/04 10:53:13;;;;;;;;;5.00;5.00;;;;;20.73;59.43;101063.45;105428;1291;23112;-65
2023/01/04 10:55:40;;;;;;;;;;;;;;;20.74;59.37;101062.22;105408;1297;21579;-66
2023/01/04 10:58:08;;;;;;;;;;;;;;;20.74;59.43;101049.89;105545;1298;19527;-66
2023/01/04 11:00:35;;;;;;;;;7.00;5.00;;;;;20.75;59.19;101041.45;105470;1291;20376;-65
2023/01/04 11:03:02;;;;;;;;;7.00;7.00;;;;;20.75;59.20;101041.04;105459;1297;23540;-65
2023/01/04 11:05:30;;;;;;;;;6.00;5.00;;;;;20.77;58.91;101032.47;105383;1282;22561;-66
2023/01/04 11:07:57;;;;;;;;;2.00;2.00;;;;;20.74;59.02;101026.05;105415;1282;23118;-65
2023/01/04 11:10:24;;;;;;;;;5.00;5.00;;;;;20.72;59.12;101019.04;105455;1297;21588;-65
2023/01/04 11:12:52;;;;;;;;;4.00;4.00;;;;;20.72;59.48;101012.64;105471;1275;20503;-65
2023/01/04 11:15:19;;;;;;;;;2.00;2.00;;;;;20.69;59.27;101007.52;105424;1284;20742;-65
2023/01/04 11:17:47;;;;;;;;;6.00;5.00;;;;;20.69;59.36;101000.67;105406;1282;21468;-65
2023/01/04 11:20:14;;;;;;;;;4.00;4.00;;;;;20.68;59.37;100990.60;105519;1282;19777;-66
2023/01/04 11:22:41;;;;;;;;;7.00;4.00;;;;;20.68;59.49;100984.58;105450;1282;19264;-65
2023/01/04 11:25:08;;;;;;;;;4.00;4.00;;;;;20.70;59.50;100978.08;105443;1296;23774;-66
2023/01/04 11:27:36;;;;;;;;;4.00;4.00;;;;;20.73;59.63;100974.34;105415;1298;19431;-66
2023/01/04 11:30:03;;;;;;;;;;;;;;;20.76;60.02;100964.87;105401;1275;20790;-65
2023/01/04 11:32:31;;;;;;;;;2.00;2.00;;;;;20.76;60.05;100958.47;105519;1289;21624;-66
2023/01/04 11:34:58;;;;;;;;;4.00;4.00;;;;;20.76;60.16;100956.09;105424;1281;19293;-65
2023/01/04 11:37:25;;;;;;;;;4.00;4.00;;;;;20.76;60.28;100948.11;105510;1290;19309;-65
2023/01/04 11:39:53;;;;;;;;;7.00;5.00;;;;;20.75;60.30;100938.65;105458;1301;20188;-65
2023/01/04 11:42:20;;;;;;;;;2.00;2.00;;;;;20.72;60.35;100925.67;105452;1285;19633;-65
2023/01/04 11:44:47;;;;;;;;;7.00;5.00;;;;;20.72;60.37;100920.61;105428;1292;20780;-65
2023/01/04 11:47:15;;;;;;;;;2.00;2.00;;;;;20.73;60.21;100905.59;105470;1275;21451;-65
2023/01/04 11:49:42;;;;;;;;;4.00;4.00;;;;;20.74;60.18;100901.90;105298;1304;19551;-65
2023/01/04 11:52:09;;;;;;;;;4.00;4.00;;;;;20.74;60.20;100892.30;105314;1282;19316;-65
2023/01/04 11:54:37;;;;;;;;;2.00;2.00;;;;;20.73;60.12;100885.09;105314;1282;20085;-65
2023/01/04 11:57:07;;;;;;;;;4.00;3.00;;;;;20.72;60.02;100876.07;105395;1283;19638;-65
2023/01/04 11:59:34;;;;;;;;;4.00;4.00;;;;;20.74;59.95;100868.61;105593;1297;20654;-64
2023/01/04 12:02:01;;;;;;;;;3.00;3.00;;;;;20.74;59.96;100865.16;105406;1297;21522;-64
2023/01/04 12:04:29;;;;;;;;;4.00;4.00;;;;;20.74;59.70;100856.70;105413;1300;19945;-64